createdAt,value
2023-05-10T00:02:05.370Z,100765.38
2023-05-10T00:04:33.452Z,100766.06
2023-05-10T00:07:01.358Z,100762.69
2023-05-10T00:09:29.200Z,100760.53
2023-05-10T00:11:59.255Z,100763.03
2023-05-10T00:14:27.092Z,100756.03
2023-05-10T00:16:55.038Z,100754.34
2023-05-10T00:19:24.308Z,100760.00
2023-05-10T00:21:52.249Z,100752.31
2023-05-10T00:24:20.128Z,100756.13
2023-05-10T00:26:47.992Z,100747.31
2023-05-10T00:29:15.955Z,100749.44
2023-05-10T00:31:43.907Z,100741.75
2023-05-10T00:34:11.926Z,100737.59
2023-05-10T00:36:41.373Z,100737.75
2023-05-10T00:39:09.364Z,100738.19
2023-05-10T00:41:37.184Z,100733.03
2023-05-10T00:44:06.841Z,100727.03
2023-05-10T00:46:34.921Z,100724.91
2023-05-10T00:49:02.930Z,100728.34
2023-05-10T00:51:32.006Z,100725.41
2023-05-10T00:54:02.244Z,100716.03
2023-05-10T00:56:30.867Z,100708.78
2023-05-10T00:58:58.824Z,100718.66
2023-05-10T01:01:26.732Z,100713.16
2023-05-10T01:03:54.885Z,100721.25
2023-05-10T01:06:22.904Z,100713.91
2023-05-10T01:08:50.817Z,100718.22
2023-05-10T01:11:20.623Z,100707.81
2023-05-10T01:13:53.085Z,100706.19
2023-05-10T01:16:21.032Z,100702.16
2023-05-10T01:18:50.661Z,100707.81
2023-05-10T01:21:23.240Z,100689.69
2023-05-10T01:24:11.773Z,100694.16
2023-05-10T01:27:09.380Z,100697.69
2023-05-10T01:30:14.819Z,100693.50
2023-05-10T01:32:48.745Z,100690.81
2023-05-10T01:35:19.871Z,100697.44
2023-05-10T01:37:52.866Z,100692.91
2023-05-10T01:40:25.245Z,100685.47
2023-05-10T01:42:56.451Z,100687.16
2023-05-10T01:45:29.599Z,100695.28
2023-05-10T01:48:07.578Z,100679.44
2023-05-10T01:50:37.861Z,100692.84
2023-05-10T01:53:09.281Z,100682.38
2023-05-10T01:55:41.916Z,100685.19
2023-05-10T01:58:12.468Z,100675.78
2023-05-10T02:00:44.859Z,100688.38
2023-05-10T02:03:15.000Z,100678.66
2023-05-10T02:05:43.385Z,100684.19
2023-05-10T02:08:11.856Z,100690.66
2023-05-10T02:10:41.582Z,100682.47
2023-05-10T02:13:10.406Z,100679.81
2023-05-10T02:15:38.678Z,100681.03
2023-05-10T02:18:07.639Z,100684.06
2023-05-10T02:20:37.255Z,100678.75
2023-05-10T02:23:05.611Z,100676.41
2023-05-10T02:25:34.004Z,100672.69
2023-05-10T02:28:04.279Z,100672.91
2023-05-10T02:30:33.579Z,100675.88
2023-05-10T02:33:01.946Z,100673.38
2023-05-10T02:35:30.415Z,100667.91
2023-05-10T02:38:01.052Z,100670.19
2023-05-10T02:40:30.745Z,100672.38
2023-05-10T02:42:59.715Z,100669.50
2023-05-10T02:45:30.426Z,100667.97
2023-05-10T02:47:58.716Z,100675.03
2023-05-10T02:50:29.632Z,100670.56
2023-05-10T02:53:04.082Z,100660.25
2023-05-10T02:55:35.160Z,100671.72
2023-05-10T02:58:22.069Z,100671.03
2023-05-10T03:00:49.873Z,100665.56
2023-05-10T03:03:17.702Z,100672.44
2023-05-10T03:05:45.577Z,100667.03
2023-05-10T03:08:14.936Z,100669.31
2023-05-10T03:10:51.416Z,100666.34
2023-05-10T03:13:28.490Z,100665.97
2023-05-10T03:16:00.438Z,100670.41
2023-05-10T03:18:33.065Z,100666.16
2023-05-10T03:21:06.136Z,100668.53
2023-05-10T03:23:39.407Z,100664.56
2023-05-10T03:26:07.321Z,100668.53
2023-05-10T03:28:36.156Z,100660.41
2023-05-10T03:31:06.985Z,100668.53
2023-05-10T03:33:35.506Z,100662.38
2023-05-10T03:36:03.383Z,100664.50
2023-05-10T03:38:31.411Z,100658.81
2023-05-10T03:41:00.681Z,100661.84
2023-05-10T03:43:28.835Z,100665.78
2023-05-10T03:45:56.709Z,100659.91
2023-05-10T03:48:24.545Z,100661.84
2023-05-10T03:50:52.536Z,100656.22
2023-05-10T03:53:20.320Z,100654.56
2023-05-10T03:55:48.150Z,100656.22
2023-05-10T03:58:17.501Z,100660.03
2023-05-10T04:00:46.394Z,100661.84
2023-05-10T04:03:15.683Z,100661.63
2023-05-10T04:05:43.645Z,100656.38
2023-05-10T04:08:11.526Z,100659.25
2023-05-10T04:10:39.512Z,100658.00
2023-05-10T04:13:07.432Z,100657.38
2023-05-10T04:15:36.943Z,100658.38
2023-05-10T04:18:06.501Z,100653.56
2023-05-10T04:20:35.953Z,100661.91
2023-05-10T04:23:04.000Z,100645.66
2023-05-10T04:25:31.830Z,100642.94
2023-05-10T04:27:59.738Z,100636.31
2023-05-10T04:30:29.459Z,100649.31
2023-05-10T04:32:59.185Z,100645.78
2023-05-10T04:35:27.059Z,100650.13
2023-05-10T04:37:54.967Z,100645.16
2023-05-10T04:40:22.768Z,100643.28
2023-05-10T04:42:50.548Z,100647.53
2023-05-10T04:45:18.596Z,100647.75
2023-05-10T04:47:46.457Z,100640.16
2023-05-10T04:50:15.867Z,100635.06
2023-05-10T04:52:43.859Z,100632.75
2023-05-10T04:55:11.678Z,100635.13
2023-05-10T04:57:39.694Z,100640.16
2023-05-10T05:00:09.285Z,100638.88
2023-05-10T05:02:37.173Z,100634.25
2023-05-10T05:05:05.942Z,100635.97
2023-05-10T05:07:35.141Z,100640.72
2023-05-10T05:10:02.997Z,100640.41
2023-05-10T05:12:31.356Z,100635.25
2023-05-10T05:14:59.174Z,100639.78
2023-05-10T05:17:27.153Z,100638.63
2023-05-10T05:19:57.665Z,100635.53
2023-05-10T05:22:28.462Z,100627.72
2023-05-10T05:24:59.025Z,100634.38
2023-05-10T05:27:28.724Z,100641.94
2023-05-10T05:29:56.762Z,100628.78
2023-05-10T05:32:24.873Z,100627.66
2023-05-10T05:34:53.010Z,100634.00
2023-05-10T05:37:22.200Z,100636.16
2023-05-10T05:39:50.624Z,100627.03
2023-05-10T05:42:19.985Z,100626.53
2023-05-10T05:44:47.906Z,100630.53
2023-05-10T05:47:15.698Z,100625.84
2023-05-10T05:49:43.587Z,100630.06
2023-05-10T05:52:11.668Z,100619.72
2023-05-10T05:54:39.469Z,100628.88
2023-05-10T05:57:07.448Z,100617.34
2023-05-10T05:59:38.015Z,100621.03
2023-05-10T06:02:05.913Z,100617.47
2023-05-10T06:04:33.955Z,100610.59
2023-05-10T06:07:01.875Z,100620.59
2023-05-10T06:09:29.772Z,100616.22
2023-05-10T06:11:58.138Z,100616.22
2023-05-10T06:14:26.015Z,100619.38
2023-05-10T06:16:55.290Z,100620.78
2023-05-10T06:19:23.217Z,100623.72
2023-05-10T06:21:53.164Z,100618.19
2023-05-10T06:24:22.168Z,100610.28
2023-05-10T06:26:50.939Z,100615.91
2023-05-10T06:29:18.821Z,100617.09
2023-05-10T06:31:46.739Z,100605.94
2023-05-10T06:34:16.315Z,100629.06
2023-05-10T06:36:44.756Z,100615.88
2023-05-10T06:39:13.218Z,100612.19
2023-05-10T06:41:41.448Z,100616.94
2023-05-10T06:44:09.423Z,100615.59
2023-05-10T06:46:37.447Z,100615.97
2023-05-10T06:49:05.466Z,100616.47
2023-05-10T06:51:34.648Z,100614.56
2023-05-10T06:54:02.815Z,100612.50
2023-05-10T06:56:30.739Z,100615.66
2023-05-10T06:58:58.690Z,100619.19
2023-05-10T07:01:26.927Z,100608.09
2023-05-10T07:03:54.864Z,100601.91
2023-05-10T07:06:33.043Z,100612.84
2023-05-10T07:09:03.235Z,100619.19
2023-05-10T07:11:31.045Z,100611.03
2023-05-10T07:13:58.885Z,100604.28
2023-05-10T07:16:28.744Z,100611.84
2023-05-10T07:18:56.839Z,100606.41
2023-05-10T07:21:44.281Z,100602.00
2023-05-10T07:24:13.533Z,100600.91
2023-05-10T07:26:41.414Z,100602.66
2023-05-10T07:29:09.333Z,100599.34
2023-05-10T07:31:37.402Z,100613.72
2023-05-10T07:34:05.446Z,100598.84
2023-05-10T07:36:33.385Z,100597.00
2023-05-10T07:39:02.455Z,100604.09
2023-05-10T07:41:31.652Z,100604.38
2023-05-10T07:43:59.511Z,100603.66
2023-05-10T07:46:27.472Z,100604.16
2023-05-10T07:48:55.345Z,100596.00
2023-05-10T07:51:23.220Z,100606.59
2023-05-10T07:53:51.129Z,100593.22
2023-05-10T07:56:23.808Z,100591.69
2023-05-10T07:58:53.220Z,100582.19
2023-05-10T08:01:21.333Z,100581.00
2023-05-10T08:03:49.674Z,100588.06
2023-05-10T08:06:18.958Z,100580.41
2023-05-10T08:08:50.328Z,100587.22
2023-05-10T08:11:18.594Z,100593.25
2023-05-10T08:13:58.562Z,100589.28
2023-05-10T08:16:27.865Z,100585.41
2023-05-10T08:18:58.545Z,100589.94
2023-05-10T08:21:26.974Z,100600.13
2023-05-10T08:23:55.120Z,100585.53
2023-05-10T08:26:23.052Z,100590.66
2023-05-10T08:28:50.895Z,100594.50
2023-05-10T08:31:18.993Z,100587.88
2023-05-10T08:33:48.259Z,100586.63
2023-05-10T08:36:20.580Z,100588.31
2023-05-10T08:38:50.217Z,100591.94
2023-05-10T08:41:18.362Z,100580.91
2023-05-10T08:43:47.235Z,100588.84
2023-05-10T08:46:17.772Z,100595.72
2023-05-10T08:48:48.118Z,100589.59
2023-05-10T08:51:20.107Z,100600.72
2023-05-10T08:53:48.254Z,100596.97
2023-05-10T08:56:18.728Z,100588.47
2023-05-10T08:58:46.640Z,100596.41
2023-05-10T09:01:15.761Z,100599.47
2023-05-10T09:03:43.862Z,100601.97
2023-05-10T09:06:14.029Z,100581.34
2023-05-10T09:08:43.765Z,100597.06
2023-05-10T09:11:12.023Z,100597.03
2023-05-10T09:13:39.963Z,100593.94
2023-05-10T09:16:20.581Z,100597.06
2023-05-10T09:18:50.311Z,100586.81
2023-05-10T09:21:21.383Z,100593.19
2023-05-10T09:23:51.011Z,100599.69
2023-05-10T09:26:19.207Z,100588.25
2023-05-10T09:28:54.609Z,100591.56
2023-05-10T09:31:22.569Z,100590.53
2023-05-10T09:33:51.641Z,100595.72
2023-05-10T09:36:20.870Z,100602.97
2023-05-10T09:38:49.801Z,100596.56
2023-05-10T09:41:19.416Z,100610.34
2023-05-10T09:43:47.265Z,100602.75
2023-05-10T09:46:15.335Z,100592.50
2023-05-10T09:48:44.609Z,100597.81
2023-05-10T09:51:12.532Z,100593.91
2023-05-10T09:53:41.695Z,100608.00
2023-05-10T09:56:09.565Z,100604.69
2023-05-10T09:58:38.981Z,100622.03
2023-05-10T10:01:06.808Z,100603.53
2023-05-10T10:03:34.694Z,100601.13
2023-05-10T10:06:02.700Z,100601.94
2023-05-10T10:08:30.773Z,100595.78
2023-05-10T10:11:00.130Z,100607.28
2023-05-10T10:13:27.974Z,100602.91
2023-05-10T10:15:56.461Z,100591.94
2023-05-10T10:18:28.337Z,100595.75
2023-05-10T10:20:56.916Z,100598.06
2023-05-10T10:23:24.863Z,100591.84
2023-05-10T10:25:52.915Z,100587.13
2023-05-10T10:28:28.991Z,100587.44
2023-05-10T10:30:57.484Z,100590.34
2023-05-10T10:33:42.775Z,100596.09
2023-05-10T10:36:10.696Z,100588.22
2023-05-10T10:38:40.536Z,100591.06
2023-05-10T10:41:12.963Z,100583.41
2023-05-10T10:43:42.216Z,100583.06
2023-05-10T10:46:15.103Z,100593.31
2023-05-10T10:48:43.687Z,100589.97
2023-05-10T10:51:13.010Z,100591.00
2023-05-10T10:53:43.255Z,100587.97
2023-05-10T10:56:14.393Z,100589.81
2023-05-10T10:58:44.429Z,100594.22
2023-05-10T11:01:16.735Z,100592.06
2023-05-10T11:04:19.625Z,100580.72
2023-05-10T11:06:47.678Z,100583.94
2023-05-10T11:09:15.942Z,100589.00
2023-05-10T11:11:55.835Z,100582.59
2023-05-10T11:14:25.121Z,100583.47
2023-05-10T11:16:53.236Z,100577.97
2023-05-10T11:19:21.306Z,100587.50
2023-05-10T11:21:50.582Z,100583.97
2023-05-10T11:24:19.618Z,100580.13
2023-05-10T11:26:48.075Z,100573.59
2023-05-10T11:29:15.916Z,100566.84
2023-05-10T11:31:49.254Z,100583.44
2023-05-10T11:34:25.860Z,100584.38
2023-05-10T11:36:55.050Z,100586.09
2023-05-10T11:39:23.171Z,100572.28
2023-05-10T11:41:51.537Z,100561.19
2023-05-10T11:44:19.459Z,100566.84
2023-05-10T11:46:48.842Z,100566.50
2023-05-10T11:49:17.000Z,100576.25
2023-05-10T11:51:44.992Z,100565.34
2023-05-10T11:54:13.403Z,100573.50
2023-05-10T11:56:42.235Z,100564.69
2023-05-10T11:59:10.169Z,100568.44
2023-05-10T12:01:38.255Z,100560.22
2023-05-10T12:04:08.073Z,100580.84
2023-05-10T12:06:39.745Z,100571.13
2023-05-10T12:09:08.280Z,100579.94
2023-05-10T12:11:41.195Z,100572.75
2023-05-10T12:14:11.481Z,100566.25
2023-05-10T12:16:39.421Z,100571.28
2023-05-10T12:19:08.744Z,100570.72
2023-05-10T12:21:36.666Z,100579.69
2023-05-10T12:24:05.856Z,100583.47
2023-05-10T12:26:34.222Z,100580.34
2023-05-10T12:29:16.586Z,100589.56
2023-05-10T12:31:57.837Z,100588.00
2023-05-10T12:34:33.664Z,100576.72
2023-05-10T12:37:01.925Z,100578.41
2023-05-10T12:39:40.761Z,100574.22
2023-05-10T12:42:08.662Z,100571.47
2023-05-10T12:44:36.422Z,100568.00
2023-05-10T12:47:04.205Z,100584.13
2023-05-10T12:49:33.568Z,100580.84
2023-05-10T12:52:01.365Z,100586.28
2023-05-10T12:54:29.530Z,100580.16
2023-05-10T12:56:57.344Z,100577.63
2023-05-10T12:59:25.324Z,100584.88
2023-05-10T13:01:53.208Z,100578.31
2023-05-10T13:04:21.148Z,100578.97
2023-05-10T13:06:50.297Z,100583.25
2023-05-10T13:09:18.182Z,100580.47
2023-05-10T13:11:46.477Z,100583.53
2023-05-10T13:14:14.355Z,100581.09
2023-05-10T13:16:42.245Z,100579.53
2023-05-10T13:19:10.251Z,100580.91
2023-05-10T13:21:38.199Z,100580.31
2023-05-10T13:24:07.444Z,100568.91
2023-05-10T13:26:35.452Z,100565.22
2023-05-10T13:29:03.323Z,100574.19
2023-05-10T13:31:31.214Z,100566.56
2023-05-10T13:33:59.098Z,100570.63
2023-05-10T13:36:27.287Z,100568.25
2023-05-10T13:38:55.123Z,100568.34
2023-05-10T13:41:24.272Z,100566.16
2023-05-10T13:43:52.124Z,100566.22
2023-05-10T13:46:20.363Z,100559.47
2023-05-10T13:48:48.236Z,100555.81
2023-05-10T13:51:16.123Z,100561.94
2023-05-10T13:53:43.963Z,100552.97
2023-05-10T13:56:11.902Z,100560.47
2023-05-10T13:58:41.187Z,100562.59
2023-05-10T14:01:08.998Z,100553.84
2023-05-10T14:03:36.857Z,100544.97
2023-05-10T14:06:05.101Z,100558.06
2023-05-10T14:08:32.979Z,100561.22
2023-05-10T14:11:00.830Z,100552.50
2023-05-10T14:13:28.682Z,100553.53
2023-05-10T14:15:57.899Z,100557.84
2023-05-10T14:18:25.906Z,100558.81
2023-05-10T14:20:53.788Z,100549.28
2023-05-10T14:23:24.958Z,100549.44
2023-05-10T14:25:52.971Z,100545.50
2023-05-10T14:28:21.710Z,100545.03
2023-05-10T14:30:49.672Z,100551.75
2023-05-10T14:33:19.360Z,100550.00
2023-05-10T14:35:47.528Z,100549.63
2023-05-10T14:38:15.503Z,100550.31
2023-05-10T14:40:43.682Z,100547.50
2023-05-10T14:43:11.535Z,100555.16
2023-05-10T14:45:39.466Z,100548.88
2023-05-10T14:48:07.705Z,100549.38
2023-05-10T14:50:37.632Z,100544.56
2023-05-10T14:53:05.812Z,100538.75
2023-05-10T14:55:33.973Z,100543.22
2023-05-10T14:58:01.903Z,100543.41
2023-05-10T15:00:30.840Z,100545.09
2023-05-10T15:02:59.533Z,100550.00
2023-05-10T15:05:27.932Z,100556.09
2023-05-10T15:07:57.563Z,100553.00
2023-05-10T15:10:25.471Z,100554.38
2023-05-10T15:12:53.436Z,100554.66
2023-05-10T15:15:21.401Z,100552.94
2023-05-10T15:17:49.797Z,100562.53
2023-05-10T15:20:17.926Z,100559.97
2023-05-10T15:22:45.729Z,100556.38
2023-05-10T15:25:15.260Z,100552.91
2023-05-10T15:27:44.439Z,100558.78
2023-05-10T15:30:13.132Z,100553.00
2023-05-10T15:32:41.438Z,100557.81
2023-05-10T15:35:10.301Z,100552.59
2023-05-10T15:37:38.232Z,100547.75
2023-05-10T15:40:07.406Z,100563.56
2023-05-10T15:42:36.604Z,100568.09
2023-05-10T15:45:05.396Z,100560.13
2023-05-10T15:47:33.829Z,100560.94
2023-05-10T15:50:02.006Z,100568.00
2023-05-10T15:52:29.825Z,100555.59
2023-05-10T15:54:57.678Z,100565.97
2023-05-10T15:57:25.626Z,100563.84
2023-05-10T15:59:54.797Z,100568.75
2023-05-10T16:02:23.528Z,100566.91
2023-05-10T16:04:51.576Z,100568.91
2023-05-10T16:07:19.414Z,100562.50
2023-05-10T16:09:49.278Z,100564.13
2023-05-10T16:12:17.128Z,100569.28
2023-05-10T16:14:44.973Z,100565.72
2023-05-10T16:17:15.108Z,100562.75
2023-05-10T16:19:43.058Z,100580.69
2023-05-10T16:22:10.921Z,100577.09
2023-05-10T16:24:38.843Z,100579.13
2023-05-10T16:27:06.959Z,100580.19
2023-05-10T16:29:34.746Z,100582.47
2023-05-10T16:32:02.605Z,100582.50
2023-05-10T16:34:31.879Z,100581.00
2023-05-10T16:36:59.726Z,100589.81
2023-05-10T16:39:27.569Z,100594.34
2023-05-10T16:41:55.396Z,100586.75
2023-05-10T16:44:25.704Z,100595.59
2023-05-10T16:46:54.932Z,100602.50
2023-05-10T16:49:25.249Z,100603.75
2023-05-10T16:51:55.456Z,100605.09
2023-05-10T16:54:23.516Z,100605.69
2023-05-10T16:56:51.447Z,100613.63
2023-05-10T16:59:19.320Z,100615.31
2023-05-10T17:01:47.246Z,100610.34
2023-05-10T17:04:15.310Z,100620.44
2023-05-10T17:06:43.466Z,100629.91
2023-05-10T17:09:13.130Z,100633.97
2023-05-10T17:11:41.859Z,100632.03
2023-05-10T17:14:10.069Z,100625.75
2023-05-10T17:16:38.100Z,100629.22
2023-05-10T17:19:06.044Z,100636.66
2023-05-10T17:21:34.006Z,100646.84
2023-05-10T17:24:01.809Z,100649.56
2023-05-10T17:26:32.188Z,100652.94
2023-05-10T17:29:00.044Z,100655.09
2023-05-10T17:31:28.193Z,100655.16
2023-05-10T17:33:56.196Z,100658.28
2023-05-10T17:36:24.172Z,100665.19
2023-05-10T17:38:55.261Z,100670.53
2023-05-10T17:41:23.334Z,100673.22
2023-05-10T17:43:53.183Z,100675.25
2023-05-10T17:46:21.106Z,100670.25
2023-05-10T17:48:48.961Z,100685.03
2023-05-10T17:51:16.925Z,100680.81
2023-05-10T17:53:45.283Z,100679.63
2023-05-10T17:56:13.262Z,100692.53
2023-05-10T17:58:41.724Z,100697.97
2023-05-10T18:01:11.079Z,100696.78
2023-05-10T18:03:39.237Z,100689.34
2023-05-10T18:06:07.400Z,100694.34
2023-05-10T18:08:35.437Z,100693.56
2023-05-10T18:11:03.396Z,100696.47
2023-05-10T18:13:31.270Z,100704.16
2023-05-10T18:15:59.547Z,100708.50
2023-05-10T18:18:28.872Z,100713.69
2023-05-10T18:20:58.230Z,100713.91
2023-05-10T18:23:26.286Z,100720.16
2023-05-10T18:25:54.215Z,100721.81
2023-05-10T18:28:22.140Z,100733.84
2023-05-10T18:30:50.098Z,100730.09
2023-05-10T18:33:17.957Z,100730.53
2023-05-10T18:35:47.334Z,100730.75
2023-05-10T18:38:15.243Z,100738.00
2023-05-10T18:40:43.318Z,100737.16
2023-05-10T18:43:11.356Z,100740.69
2023-05-10T18:45:39.927Z,100747.13
2023-05-10T18:48:08.336Z,100747.53
2023-05-10T18:50:36.236Z,100749.78
2023-05-10T18:53:06.494Z,100747.09
2023-05-10T18:55:34.546Z,100754.94
2023-05-10T18:58:02.426Z,100754.09
2023-05-10T19:00:30.230Z,100759.84
2023-05-10T19:02:58.122Z,100770.22
2023-05-10T19:05:29.821Z,100766.50
2023-05-10T19:07:57.599Z,100774.81
2023-05-10T19:10:26.843Z,100770.44
2023-05-10T19:12:54.693Z,100788.47
2023-05-10T19:15:22.705Z,100787.22
2023-05-10T19:17:51.626Z,100782.22
2023-05-10T19:20:20.578Z,100783.66
2023-05-10T19:25:28.889Z,100793.34
2023-05-10T19:27:58.410Z,100786.28
2023-05-10T19:30:26.557Z,100790.63
2023-05-10T19:32:54.564Z,100794.38
2023-05-10T19:35:22.449Z,100790.41
2023-05-10T19:37:50.339Z,100791.66
2023-05-10T19:40:18.446Z,100792.69
2023-05-10T19:42:47.575Z,100791.66
2023-05-10T19:45:17.520Z,100796.16
2023-05-10T19:47:45.652Z,100795.72
2023-05-10T19:50:13.848Z,100807.31
2023-05-10T19:52:41.801Z,100803.78
2023-05-10T19:55:10.487Z,100806.47
2023-05-10T19:57:38.691Z,100807.63
2023-05-10T20:00:08.002Z,100812.38
2023-05-10T20:02:40.463Z,100801.00
2023-05-10T20:05:09.186Z,100810.09
2023-05-10T20:07:37.334Z,100807.34
2023-05-10T20:10:05.646Z,100810.63
2023-05-10T20:12:33.518Z,100810.00
2023-05-10T20:15:01.347Z,100818.06
2023-05-10T20:17:29.228Z,100814.13
2023-05-10T20:19:58.428Z,100821.97
2023-05-10T20:22:26.694Z,100833.25
2023-05-10T20:24:56.246Z,100830.53
2023-05-10T20:27:24.972Z,100821.19
2023-05-10T20:29:53.130Z,100827.75
2023-05-10T20:32:21.046Z,100826.50
2023-05-10T20:34:49.668Z,100826.88
2023-05-10T20:37:18.888Z,100830.81
2023-05-10T20:39:49.063Z,100824.34
2023-05-10T20:42:19.190Z,100826.13
2023-05-10T20:44:47.060Z,100831.22
2023-05-10T20:47:15.552Z,100830.75
2023-05-10T20:49:43.982Z,100827.22
2023-05-10T20:52:11.900Z,100832.88
2023-05-10T20:54:41.180Z,100827.31
2023-05-10T20:57:09.213Z,100830.84
2023-05-10T20:59:37.040Z,100835.50
2023-05-10T21:02:05.048Z,100829.88
2023-05-10T21:04:32.939Z,100832.66
2023-05-10T21:07:00.852Z,100826.66
2023-05-10T21:09:28.801Z,100837.00
2023-05-10T21:11:58.914Z,100842.03
2023-05-10T21:14:26.792Z,100843.69
2023-05-10T21:16:54.676Z,100837.88
2023-05-10T21:19:22.571Z,100847.69
2023-05-10T21:21:50.431Z,100844.19
2023-05-10T21:24:18.430Z,100851.22
2023-05-10T21:26:46.734Z,100844.31
2023-05-10T21:29:15.963Z,100850.03
2023-05-10T21:31:43.923Z,100850.22
2023-05-10T21:34:13.842Z,100852.56
2023-05-10T21:36:41.698Z,100845.44
2023-05-10T21:39:09.665Z,100851.13
2023-05-10T21:41:37.637Z,100849.78
2023-05-10T21:44:06.051Z,100847.09
2023-05-10T21:46:35.796Z,100848.88
2023-05-10T21:49:04.353Z,100851.56
2023-05-10T21:51:33.265Z,100847.13
2023-05-10T21:54:01.995Z,100853.16
2023-05-10T21:56:30.857Z,100862.03
2023-05-10T21:58:59.962Z,100856.56
2023-05-10T22:01:28.858Z,100866.47
2023-05-10T22:03:58.262Z,100866.47
2023-05-10T22:06:26.148Z,100862.31
2023-05-10T22:08:54.280Z,100865.56
2023-05-10T22:11:23.125Z,100863.91
2023-05-10T22:13:51.089Z,100866.28
2023-05-10T22:16:18.957Z,100870.19
2023-05-10T22:18:47.157Z,100861.31
2023-05-10T22:21:16.454Z,100865.47
2023-05-10T22:23:44.431Z,100864.34
2023-05-10T22:26:12.408Z,100865.56
2023-05-10T22:28:40.266Z,100871.75
2023-05-10T22:31:10.409Z,100868.81
2023-05-10T22:33:38.428Z,100868.16
2023-05-10T22:36:07.056Z,100869.72
2023-05-10T22:38:36.377Z,100871.56
2023-05-10T22:41:04.228Z,100871.28
2023-05-10T22:43:32.016Z,100863.81
2023-05-10T22:45:59.860Z,100865.66
2023-05-10T22:48:29.417Z,100867.38
2023-05-10T22:50:57.381Z,100870.25
2023-05-10T22:53:25.771Z,100876.44
2023-05-10T22:55:55.112Z,100871.09
2023-05-10T22:58:23.061Z,100872.47
2023-05-10T23:00:51.116Z,100872.47
2023-05-10T23:03:19.060Z,100878.91
2023-05-10T23:05:48.077Z,100876.59
2023-05-10T23:08:15.935Z,100874.94
2023-05-10T23:10:43.833Z,100877.34
2023-05-10T23:13:13.047Z,100879.75
2023-05-10T23:15:59.205Z,100876.06
2023-05-10T23:18:27.135Z,100876.38
2023-05-10T23:20:55.098Z,100880.78
2023-05-10T23:23:23.071Z,100878.09
2023-05-10T23:25:51.336Z,100881.63
2023-05-10T23:28:20.485Z,100879.47
2023-05-10T23:30:48.375Z,100882.16
2023-05-10T23:33:16.232Z,100884.72
2023-05-10T23:35:44.268Z,100881.38
2023-05-10T23:38:12.231Z,100876.03
2023-05-10T23:40:40.090Z,100876.84
2023-05-10T23:43:08.048Z,100886.75
2023-05-10T23:45:37.266Z,100876.56
2023-05-10T23:48:05.517Z,100880.44
2023-05-10T23:50:33.371Z,100878.78
2023-05-10T23:53:01.882Z,100875.25
2023-05-10T23:55:29.743Z,100874.63
2023-05-10T23:57:57.684Z,100870.56
